Time;durP1;ratioP1;P1;durP2;ratioP2;P2;SDS_P1;SDS_P2;PMS_P1;PMS_P2;Temp;Humidity;BMP_temperature;BMP_pressure;BME280_temperature;BME280_humidity;BME280_pressure;Samples;Min_cycle;Max_cycle;Signal;HPM_P1;HPM_P2
2021/08/17 00:04:41;;;;;;;4.57;2.22;;;21.70;65.10;;;;;;10353297;28;20164;-59
2021/08/17 00:09:42;;;;;;;5.32;2.42;;;21.70;65.10;;;;;;10361612;28;20457;-59
2021/08/17 00:14:42;;;;;;;5.63;2.42;;;21.70;65.10;;;;;;10338963;28;20056;-59
2021/08/17 00:19:45;;;;;;;6.80;2.50;;;21.70;65.70;;;;;;10341198;28;20041;-59
2021/08/17 00:24:46;;;;;;;6.35;2.25;;;21.60;65.10;;;;;;10337750;28;20049;-59
2021/08/17 00:29:47;;;;;;;4.75;2.60;;;21.60;65.00;;;;;;10338572;28;20049;-59
2021/08/17 00:34:48;;;;;;;3.88;2.15;;;21.60;65.10;;;;;;10364422;28;20033;-58
2021/08/17 00:39:48;;;;;;;5.85;2.20;;;21.60;65.00;;;;;;10367536;28;20127;-59
2021/08/17 00:44:50;;;;;;;4.43;2.30;;;21.60;65.00;;;;;;10375998;28;20112;-59
2021/08/17 00:49:50;;;;;;;5.72;2.65;;;21.60;65.00;;;;;;10353685;28;20117;-59
2021/08/17 00:54:52;;;;;;;5.75;2.75;;;21.60;65.10;;;;;;10362080;28;20117;-59
2021/08/17 00:59:52;;;;;;;5.57;2.70;;;21.60;65.10;;;;;;10376640;28;20038;-59
2021/08/17 01:04:53;;;;;;;5.35;2.42;;;21.60;65.10;;;;;;10377744;28;20030;-58
2021/08/17 01:09:53;;;;;;;5.28;2.30;;;21.60;65.10;;;;;;10355196;28;20046;-58
2021/08/17 01:14:54;;;;;;;6.93;2.70;;;21.50;65.00;;;;;;10336966;28;20058;-59
2021/08/17 01:19:55;;;;;;;4.30;2.17;;;21.50;65.00;;;;;;10362933;28;20042;-59
2021/08/17 01:24:56;;;;;;;4.70;2.20;;;21.60;65.10;;;;;;10375745;28;20049;-59
2021/08/17 01:29:57;;;;;;;4.93;2.25;;;21.50;65.00;;;;;;10350637;28;20148;-59
2021/08/17 01:34:58;;;;;;;6.35;2.35;;;21.50;65.00;;;;;;10363560;28;20036;-59
2021/08/17 01:40:06;;;;;;;3.50;2.03;;;21.50;65.00;;;;;;10351147;28;20042;-59
2021/08/17 01:45:07;;;;;;;4.72;2.38;;;21.50;65.40;;;;;;10343902;28;20449;-58
2021/08/17 01:50:08;;;;;;;5.25;2.40;;;21.50;65.00;;;;;;10335938;28;20034;-59
2021/08/17 01:55:10;;;;;;;6.82;2.60;;;21.60;69.60;;;;;;10361581;28;20041;-58
2021/08/17 02:00:13;;;;;;;5.40;2.28;;;21.60;69.70;;;;;;10355455;28;20065;-59
2021/08/17 02:05:13;;;;;;;3.72;2.00;;;21.60;69.60;;;;;;10333640;28;20034;-58
2021/08/17 02:10:14;;;;;;;6.55;2.28;;;21.60;69.20;;;;;;10371670;28;20034;-59
2021/08/17 02:15:15;;;;;;;3.72;2.35;;;21.60;69.10;;;;;;10347295;28;20163;-58
2021/08/17 02:20:15;;;;;;;3.83;2.15;;;21.60;68.70;;;;;;10344655;28;20030;-59
2021/08/17 02:25:17;;;;;;;3.88;1.85;;;21.60;68.60;;;;;;10334163;28;20088;-59
2021/08/17 02:30:17;;;;;;;4.15;2.28;;;21.60;68.50;;;;;;10334465;28;20113;-59
2021/08/17 02:35:18;;;;;;;6.18;2.30;;;21.50;68.30;;;;;;10334275;28;20022;-59
2021/08/17 02:40:19;;;;;;;5.22;2.67;;;21.50;68.10;;;;;;10348738;28;20054;-59
2021/08/17 02:45:20;;;;;;;3.92;2.45;;;21.50;68.10;;;;;;10366457;28;20037;-59
2021/08/17 02:50:20;;;;;;;4.43;2.40;;;21.50;67.80;;;;;;10359999;28;20057;-59
2021/08/17 02:55:22;;;;;;;4.30;2.10;;;21.50;67.80;;;;;;10333218;28;20441;-59
2021/08/17 03:00:23;;;;;;;4.82;2.22;;;21.50;67.60;;;;;;10332091;28;20038;-59
2021/08/17 03:05:24;;;;;;;4.18;2.22;;;21.50;67.50;;;;;;10359888;28;20402;-59
2021/08/17 03:10:24;;;;;;;6.22;2.60;;;21.50;67.40;;;;;;10354243;28;20069;-59
2021/08/17 03:15:26;;;;;;;5.35;2.40;;;21.50;67.30;;;;;;10333464;28;20035;-59
2021/08/17 03:20:28;;;;;;;4.55;2.45;;;21.50;67.20;;;;;;10341452;28;20046;-59
2021/08/17 03:25:29;;;;;;;3.75;2.40;;;21.50;67.20;;;;;;10341393;28;20367;-59
2021/08/17 03:30:29;;;;;;;4.03;2.47;;;21.50;67.30;;;;;;10339864;28;20038;-59
2021/08/17 03:35:30;;;;;;;5.20;2.20;;;21.40;67.20;;;;;;10371813;28;20076;-59
2021/08/17 03:40:31;;;;;;;3.75;2.40;;;21.40;67.20;;;;;;10361338;28;20046;-59
2021/08/17 03:45:32;;;;;;;4.97;2.22;;;21.40;67.20;;;;;;10369671;28;20041;-59
2021/08/17 03:50:33;;;;;;;4.20;2.17;;;21.40;67.00;;;;;;10359840;28;20113;-59
2021/08/17 03:55:33;;;;;;;3.92;2.28;;;21.40;67.00;;;;;;10338892;28;20038;-59
2021/08/17 04:00:35;;;;;;;4.28;2.00;;;21.40;67.00;;;;;;10339706;28;20147;-59
2021/08/17 04:05:36;;;;;;;3.92;2.10;;;21.40;67.00;;;;;;10341718;28;20482;-59
2021/08/17 04:10:38;;;;;;;4.30;2.03;;;21.40;67.00;;;;;;10359257;28;20038;-59
2021/08/17 04:15:39;;;;;;;3.97;2.38;;;21.40;66.90;;;;;;10367693;28;20474;-59
2021/08/17 04:20:40;;;;;;;5.10;2.53;;;21.40;66.80;;;;;;10346162;28;20033;-59
2021/08/17 04:25:40;;;;;;;3.95;2.20;;;21.40;66.90;;;;;;10338653;28;20037;-59
2021/08/17 04:30:41;;;;;;;3.78;2.13;;;21.30;67.00;;;;;;10341512;28;20057;-58
2021/08/17 04:35:42;;;;;;;4.07;2.10;;;21.30;67.10;;;;;;10343122;28;20109;-59
2021/08/17 04:40:42;;;;;;;3.42;2.20;;;21.30;66.90;;;;;;10338453;28;20137;-60
2021/08/17 04:45:43;;;;;;;3.97;2.50;;;21.30;66.50;;;;;;10351942;28;20383;-61
2021/08/17 04:50:44;;;;;;;4.20;2.20;;;21.30;67.00;;;;;;10338018;28;20050;-60
2021/08/17 04:55:45;;;;;;;5.97;2.58;;;21.30;66.70;;;;;;10367434;28;20034;-61
2021/08/17 05:00:47;;;;;;;4.18;2.22;;;21.30;66.90;;;;;;10370809;28;20108;-60
2021/08/17 05:05:48;;;;;;;5.13;2.70;;;21.30;67.00;;;;;;10351280;28;20034;-59
2021/08/17 05:10:49;;;;;;;7.95;2.22;;;21.30;67.30;;;;;;10345159;28;20037;-60
2021/08/17 05:15:49;;;;;;;7.03;2.70;;;21.40;67.90;;;;;;10352731;28;20474;-59
2021/08/17 05:20:50;;;;;;;8.85;2.40;;;21.40;67.70;;;;;;10356209;28;20073;-60
2021/08/17 05:25:51;;;;;;;5.10;2.60;;;21.50;67.80;;;;;;10374626;28;20164;-60
2021/08/17 05:30:52;;;;;;;5.93;2.78;;;21.50;68.10;;;;;;10349043;28;20487;-59
2021/08/17 05:35:52;;;;;;;9.10;3.03;;;21.50;68.30;;;;;;10346278;28;20105;-56
2021/08/17 05:40:53;;;;;;;5.40;2.40;;;21.50;68.00;;;;;;10338397;28;20078;-58
2021/08/17 05:45:54;;;;;;;6.13;3.45;;;21.50;68.10;;;;;;10347056;28;20109;-57
2021/08/17 05:50:54;;;;;;;5.50;3.20;;;21.50;68.10;;;;;;10352555;28;20026;-59
2021/08/17 05:55:55;;;;;;;7.10;3.40;;;21.40;68.10;;;;;;10374339;28;20117;-59
2021/08/17 06:00:56;;;;;;;5.78;2.90;;;21.40;68.20;;;;;;10375770;28;20470;-58
2021/08/17 06:05:59;;;;;;;6.53;3.35;;;21.40;68.30;;;;;;10340389;28;20532;-59
2021/08/17 06:11:00;;;;;;;5.55;3.38;;;21.40;68.30;;;;;;10353682;28;20037;-59
2021/08/17 06:16:00;;;;;;;6.30;3.78;;;21.40;68.20;;;;;;10372598;28;20383;-59
2021/08/17 06:21:01;;;;;;;13.13;3.78;;;21.30;68.20;;;;;;10335686;28;20590;-59
2021/08/17 06:26:02;;;;;;;8.43;3.90;;;21.40;68.20;;;;;;10360110;28;20026;-60
2021/08/17 06:31:03;;;;;;;9.20;4.55;;;21.30;68.00;;;;;;10345897;28;20031;-58
2021/08/17 06:36:04;;;;;;;9.35;4.80;;;21.30;68.20;;;;;;10349469;28;20578;-58
2021/08/17 06:41:05;;;;;;;11.30;4.78;;;21.30;68.80;;;;;;10334459;28;20061;-58
2021/08/17 06:46:06;;;;;;;13.18;4.97;;;21.30;68.30;;;;;;10349519;28;20517;-58
2021/08/17 06:51:08;;;;;;;11.40;5.30;;;21.30;68.10;;;;;;10359525;28;20034;-55
2021/08/17 06:56:09;;;;;;;13.85;5.40;;;21.40;68.20;;;;;;10350122;28;20030;-58
2021/08/17 07:01:10;;;;;;;11.75;5.70;;;21.50;67.80;;;;;;10370417;28;20065;-57
2021/08/17 07:06:10;;;;;;;14.25;5.35;;;21.40;68.20;;;;;;10340340;28;20442;-57
2021/08/17 07:11:11;;;;;;;17.30;5.90;;;21.40;68.40;;;;;;10365249;28;20261;-57
2021/08/17 07:16:12;;;;;;;15.80;6.00;;;21.30;68.70;;;;;;10335664;28;20061;-58
2021/08/17 07:21:12;;;;;;;16.98;5.72;;;21.30;68.90;;;;;;10352117;28;20065;-58
2021/08/17 07:26:13;;;;;;;19.70;6.38;;;21.30;69.00;;;;;;10349931;28;20121;-59
2021/08/17 07:31:14;;;;;;;14.88;7.03;;;21.30;68.90;;;;;;10338537;28;20026;-60
2021/08/17 07:36:15;;;;;;;18.40;6.32;;;21.40;69.00;;;;;;10337730;28;20155;-59
2021/08/17 07:41:16;;;;;;;11.68;6.90;;;21.40;68.90;;;;;;10364743;28;20038;-59
2021/08/17 07:46:16;;;;;;;19.48;6.82;;;21.40;68.90;;;;;;10350540;28;20025;-60
2021/08/17 07:51:19;;;;;;;14.05;6.72;;;21.40;68.90;;;;;;10328807;28;20102;-57
2021/08/17 07:56:20;;;;;;;18.52;6.72;;;21.40;68.40;;;;;;10343086;28;20025;-59
2021/08/17 08:01:20;;;;;;;17.40;6.78;;;21.30;68.60;;;;;;10364947;28;20069;-58
2021/08/17 08:06:21;;;;;;;16.60;6.35;;;21.30;68.70;;;;;;10369759;28;20571;-59
2021/08/17 08:11:22;;;;;;;15.48;7.70;;;21.30;68.70;;;;;;10377223;28;20529;-58
2021/08/17 08:16:24;;;;;;;20.70;8.00;;;21.30;68.90;;;;;;10349081;28;20125;-58
2021/08/17 08:21:25;;;;;;;13.98;6.32;;;21.30;69.00;;;;;;10361501;28;20038;-56
2021/08/17 08:26:26;;;;;;;15.90;7.10;;;21.20;68.90;;;;;;10340412;28;20022;-57
2021/08/17 08:31:26;;;;;;;15.10;7.00;;;21.20;68.90;;;;;;10337684;28;20422;-57
2021/08/17 08:36:27;;;;;;;15.98;6.07;;;21.20;68.90;;;;;;10345527;28;20486;-57
2021/08/17 08:41:28;;;;;;;14.23;7.60;;;21.30;69.00;;;;;;10336621;28;20124;-58
2021/08/17 08:46:30;;;;;;;13.73;7.05;;;21.20;68.90;;;;;;10336624;28;20475;-58
2021/08/17 08:51:32;;;;;;;13.00;6.80;;;21.20;69.00;;;;;;10347293;28;20034;-57
2021/08/17 08:56:33;;;;;;;14.73;7.13;;;21.20;69.00;;;;;;10352649;28;20030;-58
2021/08/17 09:01:34;;;;;;;15.27;6.65;;;21.20;69.00;;;;;;10368445;28;20026;-58
2021/08/17 09:06:35;;;;;;;13.10;7.25;;;21.20;68.60;;;;;;10362278;28;20042;-57
2021/08/17 09:11:41;;;;;;;11.98;7.65;;;21.20;68.70;;;;;;10364932;28;20040;-59
2021/08/17 09:16:43;;;;;;;13.10;6.97;;;21.20;68.50;;;;;;10370540;28;20382;-58
2021/08/17 09:21:44;;;;;;;10.75;6.85;;;21.20;68.70;;;;;;10332436;28;20116;-58
2021/08/17 09:26:57;;;;;;;11.82;7.22;;;21.20;68.70;;;;;;10340229;28;20031;-58
2021/08/17 09:32:15;;;;;;;13.63;7.90;;;21.20;68.70;;;;;;10337110;28;20136;-58
2021/08/17 09:37:17;;;;;;;9.37;6.33;;;21.20;68.80;;;;;;10365655;28;20080;-58
2021/08/17 09:42:33;;;;;;;15.45;7.10;;;21.20;68.50;;;;;;10334517;28;20054;-58
2021/08/17 09:47:36;;;;;;;13.02;7.45;;;21.20;68.50;;;;;;10335771;28;20038;-59
2021/08/17 09:52:37;;;;;;;10.65;7.32;;;21.10;68.60;;;;;;10334976;28;20495;-59
2021/08/17 09:57:38;;;;;;;19.17;8.18;;;21.10;68.60;;;;;;10334872;28;20125;-58
2021/08/17 10:02:39;;;;;;;17.23;7.70;;;21.10;68.70;;;;;;10333355;28;20080;-58
2021/08/17 10:07:42;;;;;;;11.57;7.07;;;21.10;68.70;;;;;;10336599;28;20030;-58
2021/08/17 10:12:43;;;;;;;12.07;6.78;;;21.10;68.30;;;;;;10374927;28;20052;-59
2021/08/17 10:17:44;;;;;;;11.43;7.07;;;21.10;68.30;;;;;;10364794;28;20045;-59
2021/08/17 10:22:44;;;;;;;11.48;6.95;;;21.10;68.50;;;;;;10332722;28;20555;-59
2021/08/17 10:27:45;;;;;;;10.20;6.78;;;21.10;68.50;;;;;;10333769;28;20038;-59
2021/08/17 10:32:53;;;;;;;11.93;6.93;;;21.10;68.60;;;;;;10340546;28;20058;-58
2021/08/17 10:38:11;;;;;;;10.15;6.70;;;21.10;68.50;;;;;;10344566;28;20037;-59
2021/08/17 10:43:12;;;;;;;9.73;6.38;;;21.10;68.20;;;;;;10365813;28;20458;-59
2021/08/17 10:48:32;;;;;;;10.88;6.82;;;21.10;68.50;;;;;;10332937;28;20115;-59
2021/08/17 10:53:40;;;;;;;9.27;6.70;;;21.10;68.40;;;;;;10331901;28;20036;-59
2021/08/17 10:58:45;;;;;;;10.48;6.28;;;21.10;68.30;;;;;;10328752;28;20037;-59
2021/08/17 11:03:50;;;;;;;12.18;6.50;;;21.10;68.30;;;;;;10332834;28;20092;-59
2021/08/17 11:08:58;;;;;;;14.00;7.95;;;21.10;68.20;;;;;;10338105;28;20034;-59
2021/08/17 11:14:05;;;;;;;10.60;6.50;;;21.10;67.90;;;;;;10373631;28;20026;-59
2021/08/17 11:19:06;;;;;;;12.10;6.15;;;21.10;68.10;;;;;;10353514;28;20038;-59
2021/08/17 11:24:28;;;;;;;9.73;6.22;;;21.10;68.20;;;;;;10331503;28;20030;-59
2021/08/17 11:29:47;;;;;;;8.75;5.80;;;21.10;68.00;;;;;;10360173;28;20049;-59
2021/08/17 11:34:48;;;;;;;9.95;6.15;;;21.10;68.10;;;;;;10333741;28;20066;-58
2021/08/17 11:39:55;;;;;;;8.95;5.50;;;21.10;68.20;;;;;;10340396;28;20461;-58
2021/08/17 11:45:10;;;;;;;7.97;5.53;;;21.10;67.90;;;;;;10343214;28;20046;-58
2021/08/17 11:50:15;;;;;;;9.20;5.65;;;21.00;68.00;;;;;;10341600;28;20029;-58
2021/08/17 11:55:23;;;;;;;10.60;5.90;;;21.00;68.20;;;;;;10368054;28;20434;-58
2021/08/17 12:00:30;;;;;;;9.68;5.95;;;21.00;68.20;;;;;;10336213;28;20033;-58
2021/08/17 12:05:34;;;;;;;10.20;5.93;;;21.00;68.30;;;;;;10353478;28;20030;-59
2021/08/17 12:10:37;;;;;;;6.30;4.70;;;21.00;68.30;;;;;;10346294;28;20391;-58
2021/08/17 12:15:54;;;;;;;9.60;5.38;;;21.00;68.40;;;;;;10343858;28;20387;-58
2021/08/17 12:20:57;;;;;;;11.75;5.43;;;21.00;68.30;;;;;;10347637;28;20046;-58
2021/08/17 12:26:22;;;;;;;11.35;5.93;;;21.00;68.50;;;;;;10346970;28;20030;-58
2021/08/17 12:31:31;;;;;;;8.48;6.07;;;21.00;68.40;;;;;;10344419;28;20506;-59
2021/08/17 12:36:41;;;;;;;9.40;5.70;;;21.00;68.40;;;;;;10339904;28;20030;-59
2021/08/17 12:41:57;;;;;;;8.63;5.32;;;21.00;68.50;;;;;;10337882;28;20062;-58
2021/08/17 12:47:20;;;;;;;7.65;4.68;;;21.00;68.50;;;;;;10337595;28;20120;-58
2021/08/17 12:52:39;;;;;;;6.40;4.80;;;21.00;68.60;;;;;;10336479;28;20109;-58
2021/08/17 12:57:46;;;;;;;8.05;4.95;;;20.90;68.40;;;;;;10337956;28;20030;-58
2021/08/17 13:02:48;;;;;;;8.02;5.60;;;21.00;68.60;;;;;;10350023;28;20053;-58
2021/08/17 13:07:50;;;;;;;7.15;5.07;;;21.00;68.70;;;;;;10337083;28;20421;-59
2021/08/17 13:12:51;;;;;;;8.18;4.68;;;21.00;68.70;;;;;;10336608;28;20034;-58
2021/08/17 13:17:52;;;;;;;6.70;4.30;;;21.00;68.70;;;;;;10346315;28;20100;-58
2021/08/17 13:22:53;;;;;;;6.47;4.47;;;21.00;68.70;;;;;;10318874;28;20038;-58
2021/08/17 13:27:54;;;;;;;8.85;4.93;;;21.00;68.70;;;;;;10336826;28;20177;-59
2021/08/17 13:32:55;;;;;;;6.88;4.88;;;20.90;68.80;;;;;;10342453;28;20062;-58
2021/08/17 13:37:55;;;;;;;8.50;5.28;;;20.90;68.70;;;;;;10351179;28;20145;-59
2021/08/17 13:42:58;;;;;;;6.05;4.25;;;20.90;68.90;;;;;;10347537;28;20078;-58
2021/08/17 13:47:59;;;;;;;6.90;4.88;;;20.90;68.80;;;;;;10362049;28;20030;-58
2021/08/17 13:53:00;;;;;;;6.95;4.93;;;20.90;68.80;;;;;;10348499;28;20022;-59
2021/08/17 13:58:00;;;;;;;7.13;5.25;;;20.90;68.90;;;;;;10334765;28;20045;-58
2021/08/17 14:03:01;;;;;;;5.45;4.00;;;20.90;68.80;;;;;;10359704;28;20411;-58
2021/08/17 14:08:02;;;;;;;7.82;4.60;;;20.90;68.80;;;;;;10333134;28;20146;-58
2021/08/17 14:13:03;;;;;;;5.45;4.25;;;20.90;68.70;;;;;;10334371;28;20030;-58
2021/08/17 14:18:04;;;;;;;5.95;4.65;;;20.90;68.80;;;;;;10338022;28;20084;-58
2021/08/17 14:23:05;;;;;;;7.25;4.78;;;20.90;68.80;;;;;;10342275;28;20033;-58
2021/08/17 14:28:06;;;;;;;5.65;4.03;;;20.90;68.90;;;;;;10364488;28;20029;-58
2021/08/17 14:33:06;;;;;;;6.78;4.75;;;20.90;68.90;;;;;;10349266;28;20022;-58
2021/08/17 14:38:07;;;;;;;5.13;3.63;;;20.90;68.90;;;;;;10345343;28;20058;-58
2021/08/17 14:43:08;;;;;;;6.88;4.05;;;20.90;68.90;;;;;;10333162;28;20054;-58
2021/08/17 14:48:10;;;;;;;6.38;3.55;;;20.90;69.00;;;;;;10334001;28;20074;-58
2021/08/17 14:53:12;;;;;;;4.93;3.70;;;20.90;69.00;;;;;;10360189;28;20045;-58
2021/08/17 14:58:12;;;;;;;4.80;3.72;;;20.90;69.00;;;;;;10346215;28;20626;-59
2021/08/17 15:03:13;;;;;;;6.05;3.58;;;20.90;68.80;;;;;;10333941;28;20148;-61
2021/08/17 15:08:14;;;;;;;7.50;4.57;;;20.90;69.00;;;;;;10352918;28;20453;-58
2021/08/17 15:13:15;;;;;;;5.80;4.28;;;20.90;69.00;;;;;;10337923;28;20158;-59
2021/08/17 15:18:15;;;;;;;6.90;3.80;;;20.90;69.00;;;;;;10345299;28;20034;-58
2021/08/17 15:23:16;;;;;;;4.80;3.22;;;20.90;68.80;;;;;;10349197;28;20072;-59
2021/08/17 15:28:21;;;;;;;6.78;3.50;;;20.90;68.80;;;;;;10352450;28;20506;-58
2021/08/17 15:33:23;;;;;;;7.10;4.50;;;20.90;69.00;;;;;;10332432;28;20041;-58
2021/08/17 15:38:25;;;;;;;6.25;3.85;;;20.90;69.10;;;;;;10330493;28;20041;-58
2021/08/17 15:43:26;;;;;;;5.10;3.42;;;20.80;69.10;;;;;;10330952;28;20022;-57
2021/08/17 15:48:27;;;;;;;6.60;3.80;;;20.80;69.70;;;;;;10330599;28;20112;-58
2021/08/17 15:53:28;;;;;;;4.30;3.10;;;20.90;69.20;;;;;;10328724;28;20146;-57
2021/08/17 15:58:29;;;;;;;4.85;3.33;;;20.80;69.20;;;;;;10330127;28;20106;-58
2021/08/17 16:03:31;;;;;;;6.90;3.47;;;20.80;69.10;;;;;;10341798;28;20398;-58
2021/08/17 16:08:32;;;;;;;5.93;4.13;;;20.80;69.20;;;;;;10334299;28;20049;-58
2021/08/17 16:13:33;;;;;;;6.60;3.50;;;20.80;69.20;;;;;;10366841;28;20037;-58
2021/08/17 16:18:34;;;;;;;4.63;3.38;;;20.80;69.20;;;;;;10340150;28;20023;-58
2021/08/17 16:23:38;;;;;;;6.80;3.45;;;20.80;69.20;;;;;;10332363;28;20041;-58
2021/08/17 16:28:39;;;;;;;3.97;2.80;;;20.80;69.20;;;;;;10339026;28;20035;-58
2021/08/17 16:33:40;;;;;;;4.25;3.38;;;20.80;69.10;;;;;;10338326;28;20030;-58
2021/08/17 16:38:40;;;;;;;3.88;2.88;;;20.80;69.10;;;;;;10338075;28;20141;-58
2021/08/17 16:43:41;;;;;;;5.30;3.20;;;20.80;69.20;;;;;;10338023;28;20069;-58
2021/08/17 16:48:42;;;;;;;4.30;3.25;;;20.70;69.10;;;;;;10337579;28;20454;-57
2021/08/17 16:53:42;;;;;;;3.85;2.85;;;20.80;69.20;;;;;;10338116;28;20065;-58
2021/08/17 16:58:45;;;;;;;3.17;2.65;;;20.80;69.30;;;;;;10337519;28;20022;-58
2021/08/17 17:03:45;;;;;;;3.80;3.05;;;20.80;69.30;;;;;;10337187;28;20026;-58
2021/08/17 17:08:46;;;;;;;4.53;2.88;;;20.80;69.30;;;;;;10336742;28;20026;-58
2021/08/17 17:13:47;;;;;;;4.57;3.13;;;20.80;69.20;;;;;;10348840;28;20033;-58
2021/08/17 17:18:48;;;;;;;3.42;2.78;;;20.80;69.30;;;;;;10358662;28;20030;-58
2021/08/17 17:23:48;;;;;;;3.67;2.70;;;20.80;69.10;;;;;;10348407;28;20116;-59
2021/08/17 17:28:49;;;;;;;5.22;3.08;;;20.70;69.10;;;;;;10346637;28;20077;-59
2021/08/17 17:33:50;;;;;;;3.53;2.55;;;20.70;69.20;;;;;;10343849;28;20026;-58
2021/08/17 17:38:51;;;;;;;3.92;2.90;;;20.70;69.20;;;;;;10353503;28;20613;-59
2021/08/17 17:43:51;;;;;;;4.68;2.67;;;20.70;69.80;;;;;;10346586;28;20041;-59
2021/08/17 17:48:52;;;;;;;4.80;2.92;;;20.70;69.30;;;;;;10352396;28;20064;-59
2021/08/17 17:53:53;;;;;;;4.53;2.63;;;20.70;69.60;;;;;;10350278;28;20471;-59
2021/08/17 17:58:54;;;;;;;3.53;2.15;;;20.70;69.60;;;;;;10358665;28;20036;-58
2021/08/17 18:04:09;;;;;;;5.00;2.70;;;20.70;69.30;;;;;;10363455;28;20053;-58
2021/08/17 18:09:10;;;;;;;3.10;2.45;;;20.70;69.30;;;;;;10339489;28;20390;-58
2021/08/17 18:14:12;;;;;;;3.70;2.30;;;20.70;69.30;;;;;;10339370;28;20105;-57
2021/08/17 18:19:12;;;;;;;3.63;2.47;;;20.70;69.30;;;;;;10355120;28;20040;-57
2021/08/17 18:24:13;;;;;;;3.35;2.50;;;20.70;69.40;;;;;;10348355;28;20423;-58
2021/08/17 18:29:14;;;;;;;3.75;2.47;;;20.70;69.70;;;;;;10348026;28;20121;-58
2021/08/17 18:34:15;;;;;;;3.10;2.20;;;20.70;69.70;;;;;;10352426;28;20030;-58
2021/08/17 18:39:16;;;;;;;5.93;2.78;;;20.70;69.60;;;;;;10342213;28;20073;-58
2021/08/17 18:44:16;;;;;;;4.97;2.47;;;20.70;69.70;;;;;;10348930;28;20033;-58
2021/08/17 18:49:17;;;;;;;5.55;2.50;;;20.70;69.80;;;;;;10355298;28;20425;-58
2021/08/17 18:54:18;;;;;;;5.95;2.50;;;20.70;69.90;;;;;;10353072;28;20030;-58
2021/08/17 18:59:18;;;;;;;3.45;2.33;;;20.70;70.00;;;;;;10356807;28;20467;-58
2021/08/17 19:04:19;;;;;;;5.95;2.60;;;20.70;70.00;;;;;;10340341;28;20022;-58
2021/08/17 19:09:20;;;;;;;3.65;2.40;;;20.70;70.70;;;;;;10348341;28;20029;-58
2021/08/17 19:14:21;;;;;;;5.45;2.60;;;20.70;70.10;;;;;;10341729;28;20430;-59
2021/08/17 19:19:21;;;;;;;5.95;2.70;;;20.70;71.40;;;;;;10355708;28;20109;-59
2021/08/17 19:24:22;;;;;;;8.73;3.30;;;20.70;71.50;;;;;;10353264;28;20060;-59
2021/08/17 19:29:24;;;;;;;4.32;2.42;;;20.70;70.80;;;;;;10373188;28;20022;-58
2021/08/17 19:34:25;;;;;;;3.83;2.22;;;20.70;70.80;;;;;;10369542;28;20108;-58
2021/08/17 19:39:26;;;;;;;2.95;2.20;;;20.70;71.40;;;;;;10365070;28;20426;-57
2021/08/17 19:44:26;;;;;;;5.68;2.53;;;20.70;70.90;;;;;;10372370;28;20030;-58
2021/08/17 19:49:27;;;;;;;3.80;2.28;;;20.70;70.70;;;;;;10353188;28;20489;-58
2021/08/17 19:54:28;;;;;;;3.80;2.22;;;20.70;70.70;;;;;;10332490;28;20041;-58
2021/08/17 19:59:28;;;;;;;3.10;1.95;;;20.70;70.60;;;;;;10354693;28;20120;-58
2021/08/17 20:04:29;;;;;;;3.40;2.25;;;20.70;70.60;;;;;;10342745;28;20045;-58
2021/08/17 20:09:33;;;;;;;2.40;1.92;;;20.70;70.60;;;;;;10345196;28;20125;-58
2021/08/17 20:14:35;;;;;;;3.10;2.08;;;20.70;70.60;;;;;;10338451;28;20486;-58
2021/08/17 20:19:36;;;;;;;4.30;2.10;;;20.70;70.60;;;;;;10347941;28;20065;-58
2021/08/17 20:24:37;;;;;;;2.88;1.83;;;20.70;70.60;;;;;;10341464;28;20065;-57
2021/08/17 20:29:38;;;;;;;3.92;2.55;;;20.70;70.60;;;;;;10339032;28;20039;-58
2021/08/17 20:34:38;;;;;;;2.88;1.83;;;20.70;70.60;;;;;;10338772;28;20058;-58
2021/08/17 20:39:39;;;;;;;4.30;1.92;;;20.60;70.50;;;;;;10349819;28;20077;-57
2021/08/17 20:44:40;;;;;;;2.92;2.03;;;20.60;70.60;;;;;;10351361;28;20034;-58
2021/08/17 20:49:40;;;;;;;3.78;2.17;;;20.70;70.50;;;;;;10361804;28;20446;-58
2021/08/17 20:54:42;;;;;;;2.42;1.80;;;20.60;70.50;;;;;;10349731;28;20113;-58
2021/08/17 20:59:43;;;;;;;1.88;1.30;;;20.60;70.50;;;;;;10345148;28;20022;-58
2021/08/17 21:04:44;;;;;;;2.40;1.70;;;20.60;70.50;;;;;;10371759;28;20037;-58
2021/08/17 21:09:44;;;;;;;2.25;1.85;;;20.60;70.50;;;;;;10341961;28;20458;-58
2021/08/17 21:14:45;;;;;;;2.13;1.67;;;20.60;70.40;;;;;;10336300;28;20026;-58
2021/08/17 21:19:46;;;;;;;4.20;1.88;;;20.60;70.50;;;;;;10356650;28;20494;-58
2021/08/17 21:24:52;;;;;;;3.08;1.60;;;20.60;70.50;;;;;;10355053;28;20450;-58
2021/08/17 21:29:53;;;;;;;2.75;1.70;;;20.60;70.30;;;;;;10374985;28;20034;-58
2021/08/17 21:34:54;;;;;;;3.10;1.77;;;20.60;70.30;;;;;;10363567;28;20118;-58
2021/08/17 21:39:55;;;;;;;2.70;1.75;;;20.60;70.40;;;;;;10375504;28;20037;-58
2021/08/17 21:44:55;;;;;;;2.83;1.52;;;20.60;70.40;;;;;;10361866;28;20037;-58
2021/08/17 21:49:56;;;;;;;2.90;1.70;;;20.60;70.40;;;;;;10353037;28;20099;-58
2021/08/17 21:54:57;;;;;;;1.98;1.48;;;20.60;70.40;;;;;;10365372;28;20463;-58
2021/08/17 21:59:58;;;;;;;2.92;1.92;;;20.60;70.40;;;;;;10356422;28;20472;-58
2021/08/17 22:04:58;;;;;;;2.00;1.40;;;20.50;70.30;;;;;;10346474;28;20058;-58
2021/08/17 22:10:01;;;;;;;2.45;1.58;;;20.50;70.30;;;;;;10367155;28;20472;-58
2021/08/17 22:15:02;;;;;;;2.45;1.55;;;20.50;70.30;;;;;;10342009;28;20486;-58
2021/08/17 22:20:05;;;;;;;3.33;1.80;;;20.50;70.30;;;;;;10355944;28;20101;-58
2021/08/17 22:25:08;;;;;;;3.58;1.27;;;20.50;70.40;;;;;;10347198;28;20022;-58
2021/08/17 22:30:12;;;;;;;2.83;1.50;;;20.50;70.40;;;;;;10334491;28;20121;-58
2021/08/17 22:35:13;;;;;;;2.80;1.60;;;20.50;70.40;;;;;;10333062;28;20026;-57
2021/08/17 22:40:14;;;;;;;2.92;1.63;;;20.50;70.40;;;;;;10334583;28;20042;-58
2021/08/17 22:45:15;;;;;;;2.22;1.40;;;20.50;70.40;;;;;;10339157;28;20172;-58
2021/08/17 22:50:16;;;;;;;2.85;1.38;;;20.50;70.40;;;;;;10340789;28;20085;-58
2021/08/17 22:55:17;;;;;;;2.65;1.40;;;20.50;70.40;;;;;;10341512;28;20517;-58
2021/08/17 23:00:18;;;;;;;1.60;1.27;;;20.50;70.40;;;;;;10374339;28;20061;-58
2021/08/17 23:05:18;;;;;;;1.98;1.35;;;20.50;70.50;;;;;;10363882;28;20030;-57
2021/08/17 23:10:20;;;;;;;1.80;1.30;;;20.50;70.40;;;;;;10333755;28;20035;-58
2021/08/17 23:15:20;;;;;;;2.38;1.40;;;20.50;70.50;;;;;;10351091;28;20062;-58
2021/08/17 23:20:21;;;;;;;1.83;1.38;;;20.50;70.40;;;;;;10342790;28;20113;-57
2021/08/17 23:25:21;;;;;;;2.40;1.15;;;20.50;70.40;;;;;;10332802;28;20109;-58
2021/08/17 23:30:22;;;;;;;2.45;1.40;;;20.50;70.40;;;;;;10331624;28;20081;-58
2021/08/17 23:35:23;;;;;;;2.40;1.30;;;20.50;70.40;;;;;;10337126;28;20027;-58
2021/08/17 23:40:24;;;;;;;2.38;1.20;;;20.40;70.40;;;;;;10340907;28;20042;-58
2021/08/17 23:45:25;;;;;;;2.90;1.60;;;20.50;70.50;;;;;;10349672;28;20449;-58
2021/08/17 23:50:25;;;;;;;1.95;1.40;;;20.50;70.40;;;;;;10381201;28;20061;-58
2021/08/17 23:55:26;;;;;;;2.10;1.08;;;20.50;70.50;;;;;;10380887;28;20088;-58
